createdAt,value
2018-05-13T00:01:00.486Z,10.70
2018-05-13T00:03:29.464Z,13.07
2018-05-13T00:05:57.685Z,10.20
2018-05-13T00:08:26.136Z,11.57
2018-05-13T00:10:55.403Z,12.87
2018-05-13T00:13:23.884Z,10.70
2018-05-13T00:15:52.568Z,12.30
2018-05-13T00:18:20.772Z,11.13
2018-05-13T00:20:49.340Z,12.13
2018-05-13T00:23:17.541Z,21.73
2018-05-13T00:25:53.492Z,10.47
2018-05-13T00:28:23.013Z,11.60
2018-05-13T00:30:51.843Z,11.67
2018-05-13T00:33:20.771Z,12.97
2018-05-13T00:35:50.279Z,19.57
2018-05-13T00:38:20.058Z,12.67
2018-05-13T00:40:50.484Z,11.20
2018-05-13T00:43:18.695Z,14.27
2018-05-13T00:45:46.912Z,12.00
2018-05-13T00:48:15.151Z,12.00
2018-05-13T00:50:43.389Z,12.90
2018-05-13T00:53:11.608Z,12.03
2018-05-13T00:55:41.512Z,14.03
2018-05-13T00:58:10.497Z,11.40
2018-05-13T01:00:42.584Z,12.80
2018-05-13T01:03:11.658Z,12.43
2018-05-13T01:05:39.866Z,13.63
2018-05-13T01:08:08.224Z,11.20
2018-05-13T01:13:11.824Z,12.80
2018-05-13T01:15:40.041Z,13.53
2018-05-13T01:18:08.759Z,13.67
2018-05-13T01:20:37.712Z,15.70
2018-05-13T01:23:06.803Z,12.73
2018-05-13T01:25:35.785Z,12.10
2018-05-13T01:28:04.500Z,14.97
2018-05-13T01:30:32.703Z,13.83
2018-05-13T01:33:00.921Z,12.87
2018-05-13T01:35:29.840Z,13.00
2018-05-13T01:37:58.496Z,13.40
2018-05-13T01:40:26.993Z,16.53
2018-05-13T01:42:56.300Z,14.30
2018-05-13T01:45:25.498Z,13.50
2018-05-13T01:47:54.306Z,17.73
2018-05-13T01:50:23.152Z,13.33
2018-05-13T01:52:52.301Z,14.20
2018-05-13T01:55:20.968Z,13.80
2018-05-13T01:57:49.450Z,13.33
2018-05-13T02:00:19.422Z,12.80
2018-05-13T02:02:47.631Z,13.93
2018-05-13T02:05:16.604Z,12.90
2018-05-13T02:07:46.648Z,12.23
2018-05-13T02:10:16.104Z,15.60
2018-05-13T02:12:44.768Z,14.97
2018-05-13T02:15:13.333Z,14.70
2018-05-13T02:17:41.707Z,14.77
2018-05-13T02:20:18.404Z,14.17
2018-05-13T02:22:46.616Z,13.30
2018-05-13T02:25:15.456Z,14.00
2018-05-13T02:27:44.000Z,14.07
2018-05-13T02:30:12.621Z,12.17
2018-05-13T02:32:40.824Z,11.70
2018-05-13T02:35:09.476Z,13.67
2018-05-13T02:37:38.444Z,12.63
2018-05-13T02:40:07.064Z,12.43
2018-05-13T02:42:36.423Z,16.23
2018-05-13T02:45:04.635Z,13.73
2018-05-13T02:47:33.712Z,13.93
2018-05-13T02:50:01.916Z,24.17
2018-05-13T02:52:30.128Z,15.53
2018-05-13T02:54:58.351Z,19.20
2018-05-13T02:57:27.132Z,18.37
2018-05-13T02:59:56.083Z,16.37
2018-05-13T03:02:24.296Z,12.90
2018-05-13T03:04:52.768Z,14.33
2018-05-13T03:07:20.976Z,17.67
2018-05-13T03:12:23.996Z,14.23
2018-05-13T03:14:52.555Z,13.17
2018-05-13T03:17:20.762Z,14.03
2018-05-13T03:19:49.313Z,14.47
2018-05-13T03:22:18.702Z,14.73
2018-05-13T03:24:46.908Z,13.60
2018-05-13T03:27:15.180Z,17.17
2018-05-13T03:29:44.177Z,16.03
2018-05-13T03:32:12.876Z,13.27
2018-05-13T03:34:41.436Z,13.57
2018-05-13T03:37:10.910Z,13.80
2018-05-13T03:39:42.129Z,14.17
2018-05-13T03:42:10.412Z,16.33
2018-05-13T03:44:38.629Z,15.50
2018-05-13T03:47:06.836Z,12.67
2018-05-13T03:49:35.220Z,14.13
2018-05-13T03:52:03.428Z,14.13
2018-05-13T03:54:31.641Z,13.73
2018-05-13T03:57:00.752Z,14.67
2018-05-13T03:59:29.731Z,14.27
2018-05-13T04:01:58.852Z,14.60
2018-05-13T04:04:27.060Z,12.87
2018-05-13T04:06:55.283Z,14.43
2018-05-13T04:09:35.649Z,14.87
2018-05-13T04:25:39.200Z,15.53
2018-05-13T04:28:07.409Z,14.50
2018-05-13T04:30:36.003Z,13.57
2018-05-13T04:33:05.921Z,15.40
2018-05-13T04:35:35.634Z,11.90
2018-05-13T04:38:03.841Z,13.33
2018-05-13T04:40:32.376Z,15.33
2018-05-13T04:43:01.463Z,12.90
2018-05-13T04:45:30.083Z,12.33
2018-05-13T04:47:59.740Z,12.40
2018-05-13T04:50:27.956Z,12.93
2018-05-13T04:52:57.825Z,13.23
2018-05-13T04:55:26.039Z,12.37
2018-05-13T04:57:54.832Z,12.63
2018-05-13T05:00:23.876Z,12.93
2018-05-13T05:02:52.551Z,13.03
2018-05-13T05:05:20.768Z,12.43
2018-05-13T05:07:49.075Z,12.90
2018-05-13T05:10:19.099Z,12.47
2018-05-13T05:12:47.890Z,13.10
2018-05-13T05:15:17.385Z,12.73
2018-05-13T05:17:46.674Z,13.27
2018-05-13T05:20:18.452Z,11.63
2018-05-13T05:22:47.739Z,13.17
2018-05-13T05:25:15.959Z,15.97
2018-05-13T05:27:44.604Z,17.30
2018-05-13T05:30:13.484Z,11.40
2018-05-13T05:32:41.889Z,13.07
2018-05-13T05:35:11.189Z,12.93
2018-05-13T05:37:40.579Z,12.67
2018-05-13T05:40:10.124Z,11.67
2018-05-13T05:42:38.483Z,11.30
2018-05-13T05:45:06.782Z,13.80
2018-05-13T05:47:34.987Z,11.17
2018-05-13T05:50:03.726Z,11.47
2018-05-13T05:52:33.278Z,11.60
2018-05-13T05:55:01.572Z,12.07
2018-05-13T05:57:29.968Z,11.27
2018-05-13T05:59:59.270Z,15.70
2018-05-13T06:02:27.484Z,12.63
2018-05-13T06:04:55.691Z,13.10
2018-05-13T06:07:24.133Z,12.90
2018-05-13T06:09:52.340Z,13.07
2018-05-13T06:12:21.749Z,12.93
2018-05-13T06:14:50.157Z,12.13
2018-05-13T06:17:18.836Z,10.63
2018-05-13T06:19:47.391Z,11.20
2018-05-13T06:22:16.636Z,12.80
2018-05-13T06:24:45.305Z,11.03
2018-05-13T06:27:13.511Z,13.27
2018-05-13T06:29:42.534Z,11.70
2018-05-13T06:32:10.727Z,15.60
2018-05-13T06:34:39.276Z,10.30
2018-05-13T06:37:07.479Z,11.40
2018-05-13T06:39:42.428Z,11.73
2018-05-13T06:42:11.158Z,13.77
2018-05-13T06:44:39.365Z,10.33
2018-05-13T06:47:07.576Z,13.03
2018-05-13T06:49:35.804Z,10.90
2018-05-13T06:52:04.011Z,11.17
2018-05-13T06:54:32.869Z,11.47
2018-05-13T06:57:02.093Z,10.33
2018-05-13T06:59:30.305Z,11.80
2018-05-13T07:01:59.302Z,10.90
2018-05-13T07:04:27.503Z,11.77
2018-05-13T07:06:56.486Z,10.67
2018-05-13T07:09:26.722Z,10.67
2018-05-13T07:11:56.044Z,11.93
2018-05-13T07:14:28.910Z,11.63
2018-05-13T07:16:57.106Z,10.70
2018-05-13T07:19:25.315Z,14.03
2018-05-13T07:21:53.780Z,10.77
2018-05-13T07:24:21.987Z,10.53
2018-05-13T07:26:50.569Z,10.80
2018-05-13T07:29:18.842Z,12.27
2018-05-13T07:31:46.997Z,14.63
2018-05-13T07:34:15.295Z,12.63
2018-05-13T07:36:43.509Z,10.80
2018-05-13T07:39:12.480Z,10.87
2018-05-13T07:41:41.914Z,9.70
2018-05-13T07:44:10.496Z,10.23
2018-05-13T07:46:38.715Z,9.90
2018-05-13T07:49:06.937Z,10.63
2018-05-13T07:51:36.368Z,11.57
2018-05-13T07:54:04.570Z,9.80
2018-05-13T07:56:33.531Z,9.90
2018-05-13T07:59:02.373Z,10.37
2018-05-13T08:01:30.944Z,12.87
2018-05-13T08:03:59.146Z,9.70
2018-05-13T08:06:27.413Z,9.93
2018-05-13T08:08:55.651Z,8.33
2018-05-13T08:11:23.979Z,10.40
2018-05-13T08:13:52.872Z,10.30
2018-05-13T08:16:22.376Z,9.53
2018-05-13T08:18:50.764Z,9.70
2018-05-13T08:21:19.944Z,8.83
2018-05-13T08:23:48.422Z,9.03
2018-05-13T08:26:17.022Z,9.87
2018-05-13T08:28:45.237Z,9.40
2018-05-13T08:31:13.472Z,9.70
2018-05-13T08:33:49.648Z,8.63
2018-05-13T08:36:17.936Z,8.53
2018-05-13T08:38:46.148Z,8.40
2018-05-13T08:41:14.670Z,10.23
2018-05-13T08:43:42.884Z,7.43
2018-05-13T08:46:11.083Z,8.23
2018-05-13T08:48:39.356Z,9.37
2018-05-13T08:51:07.604Z,8.43
2018-05-13T08:53:35.812Z,7.40
2018-05-13T08:56:04.018Z,8.50
2018-05-13T08:58:33.018Z,8.83
2018-05-13T09:01:01.497Z,7.67
2018-05-13T09:03:30.212Z,8.70
2018-05-13T09:05:58.447Z,8.37
2018-05-13T09:08:26.636Z,7.67
2018-05-13T09:10:55.427Z,8.47
2018-05-13T09:13:23.639Z,7.50
2018-05-13T09:15:53.240Z,7.10
2018-05-13T09:18:21.441Z,8.17
2018-05-13T09:20:50.224Z,7.80
2018-05-13T09:23:19.155Z,8.43
2018-05-13T09:25:47.362Z,7.93
2018-05-13T09:28:15.625Z,7.97
2018-05-13T09:30:44.245Z,7.67
2018-05-13T09:33:13.207Z,9.53
2018-05-13T09:35:42.161Z,6.07
2018-05-13T09:38:10.362Z,6.93
2018-05-13T09:40:39.369Z,7.50
2018-05-13T09:43:07.835Z,6.53
2018-05-13T09:45:36.040Z,6.27
2018-05-13T09:48:05.614Z,6.80
2018-05-13T09:50:34.348Z,8.17
2018-05-13T09:53:02.908Z,7.13
2018-05-13T09:55:31.353Z,6.40
2018-05-13T09:57:59.932Z,6.60
2018-05-13T10:00:28.139Z,7.10
2018-05-13T10:02:56.345Z,6.53
2018-05-13T10:05:24.564Z,6.93
2018-05-13T10:07:52.843Z,6.87
2018-05-13T10:10:28.607Z,6.23
2018-05-13T10:12:57.027Z,6.20
2018-05-13T10:15:26.356Z,6.00
2018-05-13T10:17:54.552Z,6.97
2018-05-13T10:20:23.256Z,6.53
2018-05-13T10:22:51.452Z,6.77
2018-05-13T10:25:19.652Z,6.30
2018-05-13T10:27:47.860Z,6.07
2018-05-13T10:30:16.066Z,7.00
2018-05-13T10:32:44.264Z,6.50
2018-05-13T10:35:13.762Z,6.47
2018-05-13T10:37:43.089Z,5.20
2018-05-13T10:40:11.538Z,6.23
2018-05-13T10:42:40.230Z,7.30
2018-05-13T10:45:08.505Z,6.57
2018-05-13T10:47:36.717Z,5.90
2018-05-13T10:50:04.917Z,6.83
2018-05-13T10:52:39.862Z,6.10
2018-05-13T10:55:08.412Z,7.70
2018-05-13T10:57:36.905Z,9.93
2018-05-13T11:00:05.110Z,6.80
2018-05-13T11:02:33.312Z,6.40
2018-05-13T11:05:02.595Z,7.33
2018-05-13T11:07:30.880Z,7.13
2018-05-13T11:09:59.382Z,6.97
2018-05-13T11:12:28.829Z,7.20
2018-05-13T11:14:57.668Z,6.63
2018-05-13T11:17:25.860Z,7.03
2018-05-13T11:19:54.063Z,5.93
2018-05-13T11:22:22.283Z,7.07
2018-05-13T11:24:50.484Z,7.80
2018-05-13T11:27:19.232Z,10.30
2018-05-13T11:29:47.436Z,7.97
2018-05-13T11:32:20.523Z,6.97
2018-05-13T11:34:48.804Z,7.27
2018-05-13T11:37:17.850Z,6.53
2018-05-13T11:39:46.464Z,6.10
2018-05-13T11:42:15.969Z,8.30
2018-05-13T11:44:44.552Z,8.17
2018-05-13T11:47:13.146Z,8.10
2018-05-13T11:49:41.352Z,6.90
2018-05-13T11:52:09.612Z,5.60
2018-05-13T11:54:38.587Z,7.33
2018-05-13T11:57:06.976Z,6.33
2018-05-13T11:59:35.217Z,5.80
2018-05-13T12:02:03.480Z,6.60
2018-05-13T12:04:31.892Z,6.00
2018-05-13T12:07:00.098Z,6.60
2018-05-13T12:09:29.069Z,6.13
2018-05-13T12:11:58.064Z,6.70
2018-05-13T12:14:30.471Z,6.83
2018-05-13T12:16:58.681Z,6.90
2018-05-13T12:19:26.882Z,6.80
2018-05-13T12:21:55.095Z,7.80
2018-05-13T12:24:23.320Z,7.37
2018-05-13T12:26:51.521Z,7.20
2018-05-13T12:29:19.733Z,6.57
2018-05-13T12:31:47.928Z,6.50
2018-05-13T12:34:17.070Z,6.30
2018-05-13T12:36:45.274Z,6.67
2018-05-13T12:39:16.712Z,7.03
2018-05-13T12:41:46.213Z,9.20
2018-05-13T12:44:14.412Z,6.97
2018-05-13T12:46:42.612Z,7.70
2018-05-13T12:49:10.824Z,7.93
2018-05-13T12:51:40.165Z,7.97
2018-05-13T12:54:09.644Z,8.00
2018-05-13T12:56:37.848Z,8.17
2018-05-13T12:59:06.824Z,7.90
2018-05-13T13:01:36.299Z,7.80
2018-05-13T13:04:04.499Z,8.00
2018-05-13T13:06:32.704Z,7.30
2018-05-13T13:09:01.172Z,7.70
2018-05-13T13:11:30.841Z,8.37
2018-05-13T13:13:59.826Z,7.60
2018-05-13T13:16:28.932Z,8.03
2018-05-13T14:40:55.675Z,14.80
2018-05-13T14:43:24.192Z,9.93
2018-05-13T14:45:52.390Z,9.50
2018-05-13T14:48:20.923Z,7.80
2018-05-13T14:50:51.211Z,6.83
2018-05-13T14:53:19.530Z,7.70
2018-05-13T14:55:48.496Z,7.93
2018-05-13T14:58:16.982Z,8.37
2018-05-13T15:00:45.194Z,9.53
2018-05-13T15:03:13.710Z,8.03
2018-05-13T15:05:41.943Z,8.93
2018-05-13T15:08:10.147Z,7.80
2018-05-13T15:10:51.544Z,7.20
2018-05-13T15:13:20.824Z,9.00
2018-05-13T15:15:49.288Z,7.77
2018-05-13T15:18:17.879Z,7.60
2018-05-13T15:20:47.383Z,7.83
2018-05-13T15:23:15.760Z,9.63
2018-05-13T15:25:45.368Z,7.23
2018-05-13T15:28:13.735Z,9.10
2018-05-13T15:30:42.700Z,7.70
2018-05-13T15:33:11.244Z,9.93
2018-05-13T15:35:39.449Z,9.40
2018-05-13T15:38:07.644Z,8.40
2018-05-13T15:40:36.335Z,14.10
2018-05-13T15:43:04.798Z,8.80
2018-05-13T15:45:32.956Z,7.90
2018-05-13T15:48:01.901Z,8.57
2018-05-13T15:50:40.277Z,7.23
2018-05-13T15:53:08.488Z,6.90
2018-05-13T15:55:37.456Z,7.67
2018-05-13T15:58:06.384Z,9.60
2018-05-13T16:00:43.069Z,7.73
2018-05-13T16:03:11.284Z,6.83
2018-05-13T16:05:40.260Z,6.67
2018-05-13T16:08:08.707Z,8.57
2018-05-13T16:10:54.093Z,8.80
2018-05-13T16:13:23.395Z,8.07
2018-05-13T16:15:52.880Z,7.00
2018-05-13T16:18:21.852Z,8.50
2018-05-13T16:20:50.144Z,8.60
2018-05-13T16:23:18.803Z,7.57
2018-05-13T16:25:47.213Z,6.60
2018-05-13T16:28:15.408Z,6.67
2018-05-13T16:30:44.751Z,8.10
2018-05-13T16:33:13.049Z,7.13
2018-05-13T16:35:42.082Z,10.83
2018-05-13T16:38:11.593Z,7.27
2018-05-13T16:40:41.224Z,7.00
2018-05-13T16:43:09.546Z,7.03
2018-05-13T16:45:37.789Z,6.97
2018-05-13T16:48:05.993Z,7.10
2018-05-13T16:50:40.752Z,6.77
2018-05-13T16:53:09.893Z,5.67
2018-05-13T16:55:38.120Z,7.40
2018-05-13T16:58:06.959Z,6.43
2018-05-13T17:00:35.186Z,7.83
2018-05-13T17:03:03.515Z,5.43
2018-05-13T17:05:31.830Z,10.80
2018-05-13T17:08:00.033Z,5.80
2018-05-13T17:10:30.063Z,6.27
2018-05-13T17:12:58.533Z,7.37
2018-05-13T17:15:27.300Z,8.83
2018-05-13T17:17:56.280Z,13.73
2018-05-13T17:20:25.105Z,10.73
2018-05-13T17:22:53.802Z,9.40
2018-05-13T17:25:22.528Z,12.03
2018-05-13T17:27:51.033Z,10.40
2018-05-13T17:30:19.451Z,9.23
2018-05-13T17:32:49.041Z,9.73
2018-05-13T17:35:18.019Z,10.03
2018-05-13T17:37:46.229Z,12.10
2018-05-13T17:40:14.688Z,11.90
2018-05-13T17:42:43.946Z,12.80
2018-05-13T17:45:12.149Z,10.97
2018-05-13T17:47:40.410Z,10.47
2018-05-13T17:50:09.044Z,14.13
2018-05-13T17:52:37.674Z,12.17
2018-05-13T17:55:05.885Z,12.87
2018-05-13T17:57:36.915Z,10.10
2018-05-13T18:00:06.117Z,12.00
2018-05-13T18:02:34.444Z,12.33
2018-05-13T18:05:02.734Z,14.23
2018-05-13T18:07:30.944Z,14.37
2018-05-13T18:09:59.396Z,12.00
2018-05-13T18:12:27.904Z,15.40
2018-05-13T18:14:56.568Z,12.13
2018-05-13T18:17:25.148Z,11.47
2018-05-13T18:19:53.953Z,13.00
2018-05-13T18:22:22.659Z,13.47
2018-05-13T18:24:54.828Z,13.40
2018-05-13T18:27:23.252Z,14.03
2018-05-13T18:29:51.513Z,12.20
2018-05-13T18:32:19.782Z,13.57
2018-05-13T18:34:48.044Z,12.87
2018-05-13T18:37:16.724Z,12.50
2018-05-13T18:39:45.332Z,13.70
2018-05-13T18:42:14.422Z,14.03
2018-05-13T18:44:43.536Z,13.03
2018-05-13T18:47:11.909Z,14.03
2018-05-13T18:49:40.145Z,13.37
2018-05-13T18:52:08.657Z,12.70
2018-05-13T18:54:37.620Z,11.33
2018-05-13T18:57:07.263Z,12.40
2018-05-13T18:59:35.455Z,12.33
2018-05-13T19:02:04.351Z,11.57
2018-05-13T19:04:32.583Z,12.70
2018-05-13T19:07:00.989Z,14.10
2018-05-13T19:09:29.577Z,11.77
2018-05-13T19:11:59.103Z,12.50
2018-05-13T19:14:32.312Z,11.57
2018-05-13T19:17:01.244Z,10.63
2018-05-13T19:19:30.111Z,13.07
2018-05-13T19:21:58.910Z,11.90
2018-05-13T19:24:27.742Z,11.73
2018-05-13T19:26:56.708Z,11.33
2018-05-13T19:29:24.935Z,13.73
2018-05-13T19:31:53.288Z,11.50
2018-05-13T19:34:22.775Z,12.30
2018-05-13T19:36:52.499Z,12.23
2018-05-13T19:39:20.888Z,14.50
2018-05-13T19:41:50.004Z,13.40
2018-05-13T19:44:18.216Z,15.00
2018-05-13T19:46:46.425Z,14.47
2018-05-13T19:49:15.429Z,16.97
2018-05-13T19:51:44.224Z,16.40
2018-05-13T19:54:12.452Z,15.53
2018-05-13T19:56:40.877Z,14.23
2018-05-13T19:59:10.092Z,15.57
2018-05-13T20:01:38.366Z,23.70
2018-05-13T20:04:07.447Z,15.77
2018-05-13T20:06:36.044Z,15.90
2018-05-13T20:09:04.311Z,14.83
2018-05-13T20:11:32.672Z,16.30
2018-05-13T20:14:01.349Z,15.70
2018-05-13T20:16:29.789Z,21.00
2018-05-13T20:18:58.212Z,16.03
2018-05-13T20:21:27.820Z,14.30
2018-05-13T20:23:56.956Z,15.83
2018-05-13T20:26:25.221Z,19.03
2018-05-13T20:28:54.212Z,15.20
2018-05-13T20:31:23.428Z,17.00
2018-05-13T20:33:51.823Z,15.63
2018-05-13T20:36:20.211Z,14.87
2018-05-13T20:38:48.945Z,17.03
2018-05-13T20:41:18.681Z,14.83
2018-05-13T20:43:47.401Z,18.37
2018-05-13T20:46:16.880Z,14.40
2018-05-13T20:48:46.027Z,19.27
2018-05-13T20:51:14.669Z,14.73
2018-05-13T20:53:43.016Z,14.17
2018-05-13T20:56:11.813Z,14.23
2018-05-13T20:58:40.303Z,13.40
2018-05-13T21:01:08.976Z,17.17
2018-05-13T21:03:37.544Z,14.50
2018-05-13T21:06:05.752Z,13.97
2018-05-13T21:08:35.363Z,15.10
2018-05-13T21:11:10.099Z,13.30
2018-05-13T21:13:38.870Z,13.43
2018-05-13T21:16:08.834Z,12.33
2018-05-13T21:18:37.893Z,12.67
2018-05-13T21:21:06.098Z,12.07
2018-05-13T21:23:34.910Z,16.03
2018-05-13T21:26:03.560Z,12.77
2018-05-13T21:28:31.775Z,11.60
2018-05-13T21:30:59.985Z,14.67
2018-05-13T21:33:28.216Z,11.80
2018-05-13T21:35:56.719Z,11.93
2018-05-13T21:38:25.468Z,10.57
2018-05-13T21:40:54.103Z,13.93
2018-05-13T21:43:23.396Z,10.53
2018-05-13T21:45:51.606Z,12.30
2018-05-13T21:48:20.277Z,12.00
2018-05-13T21:50:49.033Z,13.27
2018-05-13T21:53:17.272Z,11.53
2018-05-13T21:55:46.268Z,16.33
2018-05-13T21:58:14.551Z,12.53
2018-05-13T22:00:43.083Z,11.63
2018-05-13T22:03:12.200Z,12.43
2018-05-13T22:05:41.174Z,12.80
2018-05-13T22:08:09.690Z,11.33
2018-05-13T22:10:41.340Z,10.17
2018-05-13T22:13:11.569Z,11.07
2018-05-13T22:15:39.924Z,12.60
2018-05-13T22:18:08.132Z,12.50
2018-05-13T22:20:36.343Z,11.93
2018-05-13T22:23:04.572Z,10.90
2018-05-13T22:25:33.552Z,11.67
2018-05-13T22:28:02.536Z,14.07
2018-05-13T22:30:30.757Z,13.70
2018-05-13T22:32:58.969Z,13.73
2018-05-13T22:35:27.186Z,13.03
2018-05-13T22:37:56.284Z,16.90
2018-05-13T22:40:25.774Z,14.70
2018-05-13T22:42:55.272Z,17.30
2018-05-13T22:45:23.748Z,17.40
2018-05-13T22:47:51.957Z,14.73
2018-05-13T22:50:21.252Z,13.47
2018-05-13T22:52:50.747Z,14.17
2018-05-13T22:55:19.728Z,14.00
2018-05-13T22:57:49.299Z,14.43
2018-05-13T23:00:17.529Z,15.33
2018-05-13T23:02:46.608Z,15.43
2018-05-13T23:05:14.807Z,16.43
2018-05-13T23:07:43.012Z,13.47
2018-05-13T23:10:11.236Z,15.53
2018-05-13T23:12:39.987Z,17.20
2018-05-13T23:15:08.323Z,14.83
2018-05-13T23:17:37.761Z,20.00
2018-05-13T23:20:05.974Z,18.20
2018-05-13T23:22:36.512Z,21.27
2018-05-13T23:25:05.405Z,16.07
2018-05-13T23:27:33.808Z,14.73
2018-05-13T23:30:02.241Z,13.20
2018-05-13T23:32:31.401Z,12.43
2018-05-13T23:34:59.772Z,14.13
2018-05-13T23:37:28.867Z,13.40
2018-05-13T23:39:58.993Z,13.70
2018-05-13T23:42:28.900Z,12.30
2018-05-13T23:44:59.852Z,11.93
2018-05-13T23:47:28.118Z,12.70
2018-05-13T23:49:57.594Z,13.50
2018-05-13T23:52:26.433Z,12.20
2018-05-13T23:54:56.939Z,11.63
2018-05-13T23:57:26.140Z,12.30
2018-05-13T23:59:55.116Z,10.50
